Time;durP1;ratioP1;P1;durP2;ratioP2;P2;SDS_P1;SDS_P2;PMS_P1;PMS_P2;Temp;Humidity;BMP_temperature;BMP_pressure;BME280_temperature;BME280_humidity;BME280_pressure;Samples;Min_cycle;Max_cycle;Signal;HPM_P1;HPM_P2
2022/09/29 00:01:56;;;;;;;8.55;6.20;;;7.60;99.90;;;;;;5049651;28;20116;-42
2022/09/29 00:04:22;;;;;;;8.07;6.82;;;7.60;99.90;;;;;;5050668;28;20040;-46
2022/09/29 00:06:47;;;;;;;8.32;6.47;;;7.70;99.90;;;;;;5051003;28;20056;-48
2022/09/29 00:09:13;;;;;;;7.95;6.50;;;7.50;99.90;;;;;;5051175;28;20076;-45
2022/09/29 00:11:39;;;;;;;12.75;6.35;;;7.50;99.90;;;;;;5049801;28;20119;-47
2022/09/29 00:14:04;;;;;;;7.03;5.82;;;7.70;99.90;;;;;;5048202;28;20033;-44
2022/09/29 00:16:30;;;;;;;7.88;6.00;;;7.70;99.90;;;;;;5050803;28;20037;-43
2022/09/29 00:18:56;;;;;;;9.00;6.65;;;7.50;99.90;;;;;;5050642;28;20116;-43
2022/09/29 00:21:22;;;;;;;8.50;6.05;;;7.60;99.90;;;;;;5049492;28;20056;-43
2022/09/29 00:23:49;;;;;;;8.55;6.13;;;7.40;99.90;;;;;;5050988;28;20056;-44
2022/09/29 00:26:19;;;;;;;8.32;6.10;;;7.40;99.90;;;;;;5050794;28;20095;-43
2022/09/29 00:28:57;;;;;;;8.20;6.60;;;7.50;99.90;;;;;;5050936;28;20044;-44
2022/09/29 00:31:28;;;;;;;8.95;6.32;;;7.60;99.90;;;;;;5051062;28;20048;-44
2022/09/29 00:33:54;;;;;;;8.85;6.35;;;7.50;99.90;;;;;;5050653;28;20068;-45
2022/09/29 00:36:21;;;;;;;9.48;6.40;;;7.30;99.90;;;;;;5050899;28;20072;-43
2022/09/29 00:38:48;;;;;;;8.48;6.25;;;7.30;99.90;;;;;;5050868;28;20041;-44
2022/09/29 00:41:23;;;;;;;8.93;6.15;;;7.50;99.90;;;;;;5050884;28;20450;-44
2022/09/29 00:43:59;;;;;;;9.02;6.63;;;7.40;99.90;;;;;;5034791;28;20041;-44
2022/09/29 00:47:04;;;;;;;9.60;6.10;;;7.20;99.90;;;;;;5050387;28;20395;-44
2022/09/29 00:49:52;;;;;;;8.88;5.45;;;7.20;99.90;;;;;;4988288;28;20049;-43
2022/09/29 00:52:18;;;;;;;10.38;6.30;;;7.20;99.90;;;;;;4978732;28;20096;-48
2022/09/29 00:54:51;;;;;;;9.93;6.40;;;7.20;99.90;;;;;;5027367;28;20053;-42
2022/09/29 00:57:20;;;;;;;7.70;5.50;;;7.20;99.90;;;;;;5047735;28;20045;-44
2022/09/29 01:00:03;;;;;;;9.57;6.32;;;7.20;99.90;;;;;;5049454;28;20476;-43
2022/09/29 01:02:32;;;;;;;9.65;6.53;;;7.20;99.90;;;;;;5049115;28;20049;-44
2022/09/29 01:05:01;;;;;;;10.30;7.13;;;7.30;99.90;;;;;;5048190;28;20029;-44
2022/09/29 01:07:27;;;;;;;9.02;6.88;;;7.10;99.90;;;;;;5050590;28;20132;-43
2022/09/29 01:09:55;;;;;;;9.48;6.85;;;7.10;99.90;;;;;;5049963;28;20187;-43
2022/09/29 01:12:21;;;;;;;8.02;6.63;;;7.20;99.90;;;;;;5050277;28;20052;-44
2022/09/29 01:14:47;;;;;;;9.07;6.75;;;7.20;99.90;;;;;;5050644;28;20033;-42
2022/09/29 01:17:13;;;;;;;9.13;6.93;;;7.10;99.90;;;;;;5049701;28;20045;-47
2022/09/29 01:19:39;;;;;;;9.73;6.88;;;6.90;99.90;;;;;;5035476;28;20167;-44
2022/09/29 01:22:59;;;;;;;9.52;7.35;;;6.90;99.90;;;;;;5050147;28;20064;-44
2022/09/29 01:25:51;;;;;;;11.65;6.90;;;6.90;99.90;;;;;;4968665;28;20053;-43
2022/09/29 01:28:38;;;;;;;10.20;7.53;;;6.90;99.90;;;;;;5047998;28;20523;-46
2022/09/29 01:31:22;;;;;;;10.82;7.20;;;7.00;99.90;;;;;;5050351;28;20098;-43
2022/09/29 01:34:18;;;;;;;8.90;6.40;;;6.90;99.90;;;;;;5054037;28;20513;-46
2022/09/29 01:36:47;;;;;;;10.32;6.85;;;6.80;99.90;;;;;;5054050;28;20075;-44
2022/09/29 01:39:18;;;;;;;9.25;7.00;;;6.80;99.90;;;;;;5054192;28;20045;-43
2022/09/29 01:41:56;;;;;;;8.27;6.07;;;6.80;99.90;;;;;;5052651;28;20037;-45
2022/09/29 01:44:25;;;;;;;9.60;7.15;;;6.80;99.90;;;;;;5052319;28;20841;-47
2022/09/29 01:47:13;;;;;;;11.82;7.05;;;6.70;99.90;;;;;;5053543;28;20041;-47
2022/09/29 01:49:59;;;;;;;10.80;6.70;;;6.90;99.90;;;;;;5053505;28;20037;-47
2022/09/29 01:52:29;;;;;;;10.10;7.30;;;6.70;99.90;;;;;;5052826;28;20477;-42
2022/09/29 01:55:07;;;;;;;8.73;6.60;;;6.90;99.90;;;;;;5053965;28;20040;-42
2022/09/29 01:58:05;;;;;;;9.88;6.93;;;6.80;99.90;;;;;;5053128;28;20045;-44
2022/09/29 02:00:37;;;;;;;12.43;7.18;;;6.60;99.90;;;;;;5053489;28;20039;-44
2022/09/29 02:03:15;;;;;;;9.80;6.85;;;6.50;99.90;;;;;;5053611;28;20453;-46
2022/09/29 02:05:49;;;;;;;9.43;6.82;;;6.60;99.90;;;;;;5053513;28;20072;-45
2022/09/29 02:08:22;;;;;;;8.82;6.78;;;6.50;99.90;;;;;;5051320;28;20041;-43
2022/09/29 02:11:06;;;;;;;9.65;6.85;;;6.70;99.90;;;;;;5053469;28;20079;-43
2022/09/29 02:13:35;;;;;;;;;;;6.40;99.90;;;;;;5053822;28;20040;-44
2022/09/29 02:16:02;;;;;;;10.73;6.97;;;6.50;99.90;;;;;;5053082;28;19989;-45
2022/09/29 02:18:33;;;;;;;10.38;6.30;;;6.60;99.90;;;;;;5052962;28;20106;-47
2022/09/29 02:21:00;;;;;;;12.13;7.78;;;6.60;99.90;;;;;;5052927;28;20072;-45
2022/09/29 02:23:26;;;;;;;10.52;7.88;;;6.50;99.90;;;;;;5052878;28;20048;-45
2022/09/29 02:25:57;;;;;;;11.52;8.38;;;6.60;99.90;;;;;;5053082;28;20123;-46
2022/09/29 02:28:23;;;;;;;10.38;7.25;;;6.70;99.90;;;;;;5051563;28;20495;-42
2022/09/29 02:30:50;;;;;;;11.93;8.00;;;6.70;99.90;;;;;;5047930;28;20045;-46
2022/09/29 02:33:24;;;;;;;13.13;8.00;;;6.50;99.90;;;;;;5052906;28;20060;-46
2022/09/29 02:36:08;;;;;;;11.70;8.18;;;6.50;99.90;;;;;;5036195;28;20108;-46
2022/09/29 02:38:56;;;;;;;11.57;8.85;;;6.50;99.90;;;;;;5052934;28;20052;-46
2022/09/29 02:41:50;;;;;;;11.20;8.65;;;6.70;99.90;;;;;;5052687;28;20040;-46
2022/09/29 02:44:48;;;;;;;14.02;8.32;;;6.70;99.90;;;;;;5021152;28;20045;-44
2022/09/29 02:47:41;;;;;;;11.65;8.40;;;6.60;99.90;;;;;;5051409;28;20079;-45
2022/09/29 02:50:21;;;;;;;11.20;7.15;;;6.50;99.90;;;;;;5052483;28;20047;-47
2022/09/29 02:53:24;;;;;;;10.85;7.55;;;6.20;99.90;;;;;;5052811;28;20069;-44
2022/09/29 02:56:03;;;;;;;10.30;6.90;;;6.20;99.90;;;;;;5051812;28;20102;-44
2022/09/29 02:58:48;;;;;;;10.50;7.30;;;6.30;99.90;;;;;;5052657;28;20389;-47
2022/09/29 03:01:15;;;;;;;9.70;6.68;;;6.20;99.90;;;;;;5052663;28;20392;-44
2022/09/29 03:03:41;;;;;;;12.30;6.60;;;6.10;99.90;;;;;;5052539;28;20044;-43
2022/09/29 03:06:08;;;;;;;10.73;6.50;;;6.00;99.90;;;;;;5052271;28;20053;-45
2022/09/29 03:08:34;;;;;;;9.88;7.15;;;6.00;99.90;;;;;;5051953;28;20132;-45
2022/09/29 03:11:00;;;;;;;9.93;6.50;;;6.30;99.90;;;;;;5052452;28;20214;-43
2022/09/29 03:13:26;;;;;;;9.88;6.93;;;6.20;99.90;;;;;;5050683;28;20048;-46
2022/09/29 03:15:51;;;;;;;9.88;6.68;;;6.10;99.90;;;;;;5037854;28;20048;-46
2022/09/29 03:18:17;;;;;;;11.45;6.75;;;6.10;99.90;;;;;;5052186;28;20206;-43
2022/09/29 03:20:43;;;;;;;9.68;6.70;;;6.00;99.90;;;;;;5050859;28;20045;-43
2022/09/29 03:23:08;;;;;;;10.88;6.63;;;6.10;99.90;;;;;;5051601;28;20150;-42
2022/09/29 03:25:34;;;;;;;10.27;6.80;;;6.00;99.90;;;;;;5052067;28;20507;-44
2022/09/29 03:28:00;;;;;;;10.23;6.70;;;6.10;99.90;;;;;;5051925;28;20037;-45
2022/09/29 03:30:25;;;;;;;15.20;6.78;;;6.10;99.90;;;;;;5052163;28;20040;-43
2022/09/29 03:32:51;;;;;;;15.15;7.05;;;5.90;99.90;;;;;;5051870;28;20065;-42
2022/09/29 03:35:17;;;;;;;48.22;8.00;;;5.90;99.90;;;;;;5052129;28;20446;-43
2022/09/29 03:37:43;;;;;;;17.52;7.43;;;5.90;99.90;;;;;;5052212;28;20029;-43
2022/09/29 03:40:09;;;;;;;23.95;7.78;;;6.20;99.90;;;;;;5050202;28;20063;-43
2022/09/29 03:42:34;;;;;;;24.40;7.15;;;6.00;99.90;;;;;;5051826;28;20048;-47
2022/09/29 03:45:00;;;;;;;19.20;7.18;;;5.90;99.90;;;;;;5050359;28;20119;-45
2022/09/29 03:47:26;;;;;;;13.45;7.72;;;5.90;99.90;;;;;;5036810;28;20120;-45
2022/09/29 03:49:51;;;;;;;11.43;6.50;;;6.00;99.90;;;;;;5051078;28;20076;-47
2022/09/29 03:52:17;;;;;;;9.60;6.47;;;5.90;99.90;;;;;;5051624;28;20033;-47
2022/09/29 03:54:43;;;;;;;13.10;6.65;;;5.90;99.90;;;;;;5051362;28;20472;-43
2022/09/29 03:57:09;;;;;;;9.10;6.47;;;5.90;99.90;;;;;;5049728;28;20107;-44
2022/09/29 03:59:34;;;;;;;10.80;7.22;;;5.80;99.90;;;;;;5051056;28;20043;-42
2022/09/29 04:02:00;;;;;;;11.63;6.85;;;5.90;99.90;;;;;;5050140;28;20044;-43
2022/09/29 04:04:26;;;;;;;13.70;7.15;;;6.00;99.90;;;;;;5051155;28;20029;-44
2022/09/29 04:06:51;;;;;;;11.63;7.45;;;5.90;99.90;;;;;;5051311;28;20472;-45
2022/09/29 04:09:17;;;;;;;9.90;6.90;;;5.70;99.90;;;;;;5051063;28;20052;-44
2022/09/29 04:11:43;;;;;;;10.00;6.78;;;5.70;99.90;;;;;;5051215;28;20036;-44
2022/09/29 04:14:08;;;;;;;9.93;7.03;;;5.70;99.90;;;;;;5051033;28;20102;-43
2022/09/29 04:16:34;;;;;;;9.15;6.32;;;5.70;99.90;;;;;;5048025;28;20460;-41
2022/09/29 04:19:00;;;;;;;9.07;6.43;;;5.50;99.90;;;;;;5049340;28;20041;-44
2022/09/29 04:21:25;;;;;;;9.52;6.75;;;5.40;99.90;;;;;;5050820;28;20065;-42
2022/09/29 04:23:51;;;;;;;9.48;6.60;;;5.50;99.90;;;;;;5051094;28;20073;-44
2022/09/29 04:26:19;;;;;;;10.75;7.00;;;5.40;99.90;;;;;;5050866;28;20561;-44
2022/09/29 04:28:45;;;;;;;10.80;7.43;;;5.50;99.90;;;;;;5044858;28;20080;-42
2022/09/29 04:31:11;;;;;;;10.50;7.03;;;5.40;99.90;;;;;;5051091;28;20514;-42
2022/09/29 04:33:38;;;;;;;9.80;6.90;;;5.60;99.90;;;;;;5050746;28;20045;-45
2022/09/29 04:36:04;;;;;;;9.57;6.82;;;5.30;99.90;;;;;;5050956;28;20111;-42
2022/09/29 04:38:30;;;;;;;10.48;7.30;;;5.50;99.90;;;;;;5051032;28;20047;-44
2022/09/29 04:40:56;;;;;;;10.55;7.03;;;5.50;99.90;;;;;;5050817;28;20032;-42
2022/09/29 04:43:22;;;;;;;11.48;8.05;;;5.50;99.90;;;;;;5049134;28;20052;-46
2022/09/29 04:45:48;;;;;;;12.23;7.85;;;5.50;99.90;;;;;;5050452;28;20049;-45
2022/09/29 04:48:14;;;;;;;10.82;7.75;;;5.30;99.90;;;;;;5050624;28;20040;-47
2022/09/29 04:50:40;;;;;;;12.93;8.10;;;5.50;99.90;;;;;;5050542;28;20052;-42
2022/09/29 04:53:06;;;;;;;12.60;7.00;;;5.40;99.90;;;;;;5050663;28;20041;-47
2022/09/29 04:55:37;;;;;;;11.85;7.95;;;5.50;99.90;;;;;;5050466;28;20029;-46
2022/09/29 04:58:03;;;;;;;12.10;7.57;;;5.30;99.90;;;;;;5048947;28;20036;-44
2022/09/29 05:00:30;;;;;;;11.85;7.85;;;5.50;99.90;;;;;;5050423;28;20043;-41
2022/09/29 05:02:57;;;;;;;10.13;6.80;;;5.50;99.90;;;;;;5037013;28;20037;-46
2022/09/29 05:05:22;;;;;;;10.20;6.88;;;5.40;99.90;;;;;;5043117;28;20037;-43
2022/09/29 05:07:48;;;;;;;11.65;7.13;;;5.40;99.90;;;;;;5036832;28;20036;-45
2022/09/29 05:10:14;;;;;;;10.80;7.28;;;5.20;99.90;;;;;;5054681;28;20111;-44
2022/09/29 05:12:39;;;;;;;10.88;6.93;;;5.40;99.90;;;;;;5051700;28;20041;-43
2022/09/29 05:15:06;;;;;;;11.05;7.03;;;5.40;99.90;;;;;;5052751;28;20473;-44
2022/09/29 05:17:32;;;;;;;10.25;6.63;;;5.40;99.90;;;;;;5054126;28;20055;-45
2022/09/29 05:20:00;;;;;;;8.88;6.65;;;5.10;99.90;;;;;;5039143;28;20029;-47
2022/09/29 05:22:26;;;;;;;9.20;6.40;;;5.10;99.90;;;;;;5054275;28;20503;-44
2022/09/29 05:24:52;;;;;;;10.02;6.88;;;5.20;99.90;;;;;;5054238;28;20037;-45
2022/09/29 05:27:18;;;;;;;9.98;5.68;;;5.20;99.90;;;;;;5051843;28;20036;-44
2022/09/29 05:29:44;;;;;;;9.98;6.40;;;4.90;99.90;;;;;;5054033;28;20076;-45
2022/09/29 05:32:10;;;;;;;9.32;6.25;;;4.90;99.90;;;;;;5054213;28;20029;-45
2022/09/29 05:34:36;;;;;;;10.88;7.28;;;4.90;99.90;;;;;;5054123;28;20041;-44
2022/09/29 05:37:01;;;;;;;13.35;6.97;;;5.10;99.90;;;;;;5054109;28;20028;-45
2022/09/29 05:39:30;;;;;;;11.38;6.57;;;5.20;99.90;;;;;;5054091;28;20461;-48
2022/09/29 05:41:56;;;;;;;17.30;7.50;;;5.10;99.90;;;;;;5054188;28;20053;-45
2022/09/29 05:44:21;;;;;;;19.40;7.78;;;5.20;99.90;;;;;;5053982;28;20056;-42
2022/09/29 05:46:47;;;;;;;11.40;7.57;;;5.20;99.90;;;;;;5053646;28;20041;-44
2022/09/29 05:49:13;;;;;;;22.38;7.85;;;5.20;99.90;;;;;;5053714;28;20033;-44
2022/09/29 05:51:38;;;;;;;10.10;7.43;;;5.20;99.90;;;;;;5052221;28;20048;-45
2022/09/29 05:54:04;;;;;;;14.80;8.35;;;5.30;99.90;;;;;;5053790;28;20468;-42
2022/09/29 05:56:30;;;;;;;21.30;8.20;;;5.30;99.90;;;;;;5053603;28;20123;-43
2022/09/29 05:58:56;;;;;;;38.88;8.25;;;5.30;99.90;;;;;;5053607;28;20056;-41
2022/09/29 06:01:24;;;;;;;26.90;8.52;;;5.10;99.90;;;;;;5053797;28;20486;-43
2022/09/29 06:03:52;;;;;;;66.13;8.70;;;5.10;99.90;;;;;;5053075;28;20040;-46
2022/09/29 06:06:20;;;;;;;50.85;9.05;;;5.10;99.90;;;;;;5053442;28;20068;-44
2022/09/29 06:08:48;;;;;;;42.20;8.32;;;5.10;99.90;;;;;;5053514;28;20068;-41
2022/09/29 06:11:19;;;;;;;16.38;7.65;;;5.10;99.90;;;;;;5053257;28;20095;-43
2022/09/29 06:13:46;;;;;;;19.15;8.02;;;5.30;99.90;;;;;;5052722;28;20072;-43
2022/09/29 06:16:13;;;;;;;56.15;8.50;;;5.10;99.90;;;;;;5052854;28;20103;-44
2022/09/29 06:18:39;;;;;;;15.95;8.65;;;5.20;99.90;;;;;;5039127;28;20048;-43
2022/09/29 06:21:07;;;;;;;28.73;8.35;;;5.00;99.90;;;;;;5051897;28;20041;-44
2022/09/29 06:23:33;;;;;;;40.83;8.80;;;5.00;99.90;;;;;;5050940;28;20056;-43
2022/09/29 06:26:01;;;;;;;18.00;7.60;;;5.20;99.90;;;;;;5053312;28;20033;-44
2022/09/29 06:28:28;;;;;;;16.70;7.38;;;5.10;99.90;;;;;;5052471;28;20048;-44
2022/09/29 06:30:59;;;;;;;13.55;8.00;;;5.20;99.90;;;;;;5052945;28;20037;-42
2022/09/29 06:33:26;;;;;;;15.48;8.05;;;5.10;99.90;;;;;;5053237;28;20048;-43
2022/09/29 06:38:36;;;;;;;11.18;7.85;;;5.00;99.90;;;;;;5052848;28;20056;-43
2022/09/29 06:41:01;;;;;;;10.88;7.80;;;5.10;99.90;;;;;;5051419;28;20045;-44
2022/09/29 06:43:27;;;;;;;11.93;7.80;;;5.10;99.90;;;;;;5049426;28;20040;-45
2022/09/29 06:45:53;;;;;;;12.05;9.43;;;5.40;99.90;;;;;;5051669;28;20045;-44
2022/09/29 06:48:18;;;;;;;11.63;9.13;;;5.40;99.90;;;;;;5050913;28;20041;-45
2022/09/29 06:50:44;;;;;;;10.85;8.70;;;5.20;99.90;;;;;;5046035;28;20053;-41
2022/09/29 06:53:10;;;;;;;11.63;9.02;;;5.50;99.90;;;;;;5044883;28;20037;-44
2022/09/29 06:55:36;;;;;;;12.40;9.38;;;5.20;99.90;;;;;;5046650;28;20033;-46
2022/09/29 06:58:01;;;;;;;11.40;8.35;;;5.50;99.90;;;;;;5046814;28;20029;-42
2022/09/29 07:00:27;;;;;;;11.48;8.52;;;5.40;99.90;;;;;;5045706;28;20517;-45
2022/09/29 07:02:53;;;;;;;12.55;9.75;;;5.50;99.90;;;;;;5047304;28;20052;-45
2022/09/29 07:05:19;;;;;;;12.75;9.40;;;5.60;99.90;;;;;;5049219;28;20104;-45
2022/09/29 07:07:47;;;;;;;11.13;8.70;;;5.60;99.90;;;;;;5021157;28;20132;-44
2022/09/29 07:10:14;;;;;;;12.98;9.30;;;5.30;99.90;;;;;;5043441;28;20131;-44
2022/09/29 07:12:40;;;;;;;14.07;10.10;;;5.70;99.90;;;;;;5042941;28;20383;-45
2022/09/29 07:15:06;;;;;;;13.30;9.90;;;5.40;99.90;;;;;;5046627;28;20036;-45
2022/09/29 07:17:32;;;;;;;16.02;11.57;;;5.70;99.90;;;;;;5048659;28;20064;-43
2022/09/29 07:19:58;;;;;;;15.55;11.05;;;5.60;99.90;;;;;;5050153;28;20131;-45
2022/09/29 07:22:23;;;;;;;15.45;11.18;;;5.60;99.90;;;;;;5046981;28;20567;-45
2022/09/29 07:24:52;;;;;;;15.48;11.60;;;5.80;99.90;;;;;;5035631;28;20036;-43
2022/09/29 07:27:22;;;;;;;16.58;11.93;;;6.10;99.90;;;;;;5047904;28;20036;-42
2022/09/29 07:29:49;;;;;;;18.75;13.10;;;6.00;99.90;;;;;;5034980;28;20040;-47
2022/09/29 07:32:14;;;;;;;20.17;13.52;;;6.20;99.90;;;;;;5040049;28;20397;-44
2022/09/29 07:34:40;;;;;;;19.33;13.98;;;6.30;99.90;;;;;;5037306;28;20041;-42
2022/09/29 07:37:06;;;;;;;18.52;13.73;;;6.30;99.90;;;;;;5037533;28;20026;-42
2022/09/29 07:39:32;;;;;;;21.60;13.80;;;6.40;99.90;;;;;;5041758;28;20048;-42
2022/09/29 07:41:57;;;;;;;21.48;14.85;;;6.60;99.90;;;;;;5041251;28;20107;-44
2022/09/29 07:44:23;;;;;;;20.17;14.50;;;6.70;99.90;;;;;;5041507;28;20083;-44
2022/09/29 07:46:49;;;;;;;21.25;15.18;;;6.50;99.90;;;;;;5041766;28;20033;-44
2022/09/29 07:49:15;;;;;;;20.20;15.82;;;6.80;99.90;;;;;;5042242;28;20050;-45
2022/09/29 07:51:40;;;;;;;22.88;15.95;;;7.00;99.90;;;;;;5041652;28;20060;-45
2022/09/29 07:54:06;;;;;;;26.30;17.70;;;7.00;99.90;;;;;;5043036;28;20289;-43
2022/09/29 07:56:32;;;;;;;26.92;18.83;;;7.10;99.90;;;;;;5041538;28;20040;-41
2022/09/29 07:58:58;;;;;;;25.33;18.05;;;7.30;99.90;;;;;;5041465;28;20047;-42
2022/09/29 08:01:24;;;;;;;24.02;19.08;;;7.40;99.90;;;;;;5041773;28;20076;-45
2022/09/29 08:03:54;;;;;;;28.02;21.67;;;7.60;99.90;;;;;;5048131;28;20544;-46
2022/09/29 08:06:21;;;;;;;30.50;21.30;;;7.60;99.90;;;;;;5049834;28;20041;-45
2022/09/29 08:08:47;;;;;;;28.63;21.95;;;7.50;99.90;;;;;;5050861;28;20079;-45
2022/09/29 08:11:16;;;;;;;34.00;22.83;;;7.80;99.90;;;;;;5050757;28;20041;-45
2022/09/29 08:13:41;;;;;;;31.83;22.27;;;7.90;99.90;;;;;;5050267;28;20045;-44
2022/09/29 08:16:11;;;;;;;28.05;20.80;;;7.90;99.90;;;;;;5050346;28;20374;-43
2022/09/29 08:18:37;;;;;;;31.83;21.40;;;7.80;99.90;;;;;;5050834;28;20041;-45
2022/09/29 08:21:04;;;;;;;30.98;21.05;;;8.10;99.90;;;;;;5050431;28;20589;-44
2022/09/29 08:23:33;;;;;;;26.70;19.35;;;8.10;99.90;;;;;;5050189;28;20044;-45
2022/09/29 08:26:20;;;;;;;28.23;20.95;;;8.20;99.90;;;;;;5050543;28;20086;-43
2022/09/29 08:28:47;;;;;;;28.33;21.05;;;8.00;99.90;;;;;;5049243;28;20037;-44
2022/09/29 08:31:19;;;;;;;32.10;22.45;;;8.30;99.90;;;;;;5048037;28;20433;-45
2022/09/29 08:33:48;;;;;;;30.80;23.08;;;8.30;99.90;;;;;;5041470;28;20037;-42
2022/09/29 08:36:15;;;;;;;28.48;21.25;;;8.30;99.90;;;;;;5047311;28;20045;-44
2022/09/29 08:38:47;;;;;;;31.70;23.25;;;8.50;99.90;;;;;;5047056;28;20120;-44
2022/09/29 08:41:48;;;;;;;27.52;21.55;;;8.70;99.90;;;;;;5046810;28;20476;-46
2022/09/29 08:44:26;;;;;;;30.30;21.70;;;8.80;99.90;;;;;;5045547;28;20049;-46
2022/09/29 08:47:23;;;;;;;32.33;22.92;;;8.80;99.90;;;;;;5044592;28;20060;-43
2022/09/29 08:49:57;;;;;;;30.92;23.45;;;9.30;99.90;;;;;;5041773;28;20032;-43
2022/09/29 08:52:45;;;;;;;32.75;24.27;;;9.10;99.90;;;;;;5040572;28;20040;-43
2022/09/29 08:55:16;;;;;;;35.63;25.70;;;9.30;99.90;;;;;;5048528;28;20112;-45
2022/09/29 08:57:45;;;;;;;29.73;23.05;;;9.70;99.90;;;;;;5046773;28;20037;-46
2022/09/29 09:00:13;;;;;;;35.08;26.33;;;9.70;99.90;;;;;;5028691;28;20090;-46
2022/09/29 09:02:59;;;;;;;33.00;25.48;;;9.80;99.90;;;;;;5048415;28;20143;-43
2022/09/29 09:05:36;;;;;;;29.08;23.48;;;9.90;99.90;;;;;;5049655;28;20068;-44
2022/09/29 09:08:04;;;;;;;29.42;23.00;;;9.80;99.90;;;;;;5050412;28;20483;-44
2022/09/29 09:10:46;;;;;;;28.35;23.02;;;9.90;99.90;;;;;;5050138;28;20107;-46
2022/09/29 09:13:23;;;;;;;27.75;22.02;;;10.10;99.90;;;;;;5050517;28;20483;-45
2022/09/29 09:16:12;;;;;;;27.75;19.58;;;10.10;99.90;;;;;;5049641;28;20037;-44
2022/09/29 09:18:41;;;;;;;26.92;19.73;;;10.20;99.90;;;;;;5049571;28;20484;-44
2022/09/29 09:21:11;;;;;;;25.33;20.17;;;10.20;99.90;;;;;;5049077;28;20048;-43
2022/09/29 09:24:00;;;;;;;24.88;20.08;;;10.30;99.90;;;;;;5050143;28;20524;-44
2022/09/29 09:26:41;;;;;;;22.73;17.75;;;10.30;99.90;;;;;;5050339;28;20037;-46
2022/09/29 09:29:21;;;;;;;20.23;16.17;;;10.50;99.90;;;;;;5050409;28;20624;-44
2022/09/29 09:32:04;;;;;;;23.38;17.95;;;10.70;99.90;;;;;;5049807;28;20087;-48
2022/09/29 09:34:48;;;;;;;22.63;16.50;;;10.80;99.90;;;;;;5049025;28;20055;-46
2022/09/29 09:37:24;;;;;;;24.20;16.15;;;10.80;99.90;;;;;;5050263;28;20060;-44
2022/09/29 09:40:01;;;;;;;20.20;16.20;;;10.80;99.90;;;;;;5050172;28;20381;-45
2022/09/29 09:42:31;;;;;;;20.02;15.25;;;10.90;99.90;;;;;;5050471;28;20155;-44
2022/09/29 09:45:09;;;;;;;18.42;15.30;;;11.00;99.90;;;;;;5050329;28;20039;-44
2022/09/29 09:47:43;;;;;;;17.08;13.52;;;10.90;99.90;;;;;;5049791;28;20444;-43
2022/09/29 09:50:12;;;;;;;15.52;13.35;;;11.30;99.90;;;;;;5050399;28;20049;-48
2022/09/29 09:53:13;;;;;;;17.13;13.07;;;11.20;99.90;;;;;;5050976;28;20072;-44
2022/09/29 09:55:39;;;;;;;16.05;12.75;;;11.50;99.90;;;;;;5048884;28;20053;-45
2022/09/29 09:58:24;;;;;;;16.90;12.75;;;11.20;99.90;;;;;;5053801;28;20045;-45
2022/09/29 10:00:58;;;;;;;16.58;13.73;;;11.30;99.90;;;;;;5052818;28;20488;-43
2022/09/29 10:03:25;;;;;;;16.35;12.68;;;11.40;99.90;;;;;;5053797;28;20114;-44
2022/09/29 10:05:51;;;;;;;18.13;12.85;;;11.50;99.90;;;;;;5053783;28;20044;-45
2022/09/29 10:08:19;;;;;;;15.45;12.52;;;11.70;99.90;;;;;;5053487;28;20036;-44
2022/09/29 10:10:45;;;;;;;15.32;12.18;;;11.70;99.90;;;;;;5052315;28;20089;-42
2022/09/29 10:13:15;;;;;;;12.68;10.68;;;11.70;99.90;;;;;;5053577;28;20426;-45
2022/09/29 10:15:44;;;;;;;18.52;11.27;;;11.90;99.90;;;;;;5052698;28;20102;-43
2022/09/29 10:18:18;;;;;;;14.20;11.88;;;11.90;99.90;;;;;;5053315;28;20033;-45
2022/09/29 10:20:44;;;;;;;14.82;11.00;;;11.90;99.90;;;;;;5052972;28;20552;-45
2022/09/29 10:23:19;;;;;;;13.80;9.98;;;11.90;99.90;;;;;;5052935;28;20135;-43
2022/09/29 10:25:58;;;;;;;13.50;9.18;;;12.00;99.90;;;;;;5053346;28;20044;-43
2022/09/29 10:28:25;;;;;;;10.93;8.38;;;12.10;99.90;;;;;;5053011;28;20484;-44
2022/09/29 10:30:53;;;;;;;11.18;8.73;;;12.30;99.90;;;;;;5051048;28;20193;-45
2022/09/29 10:33:23;;;;;;;9.80;7.53;;;12.50;99.90;;;;;;5051499;28;20408;-48
2022/09/29 10:36:04;;;;;;;11.57;8.82;;;12.80;99.90;;;;;;5051149;28;20500;-47
2022/09/29 10:38:31;;;;;;;9.32;7.07;;;13.00;99.90;;;;;;5048566;28;20036;-46
2022/09/29 10:41:03;;;;;;;8.30;6.70;;;13.10;99.90;;;;;;5049489;28;20041;-44
2022/09/29 10:43:38;;;;;;;7.35;5.57;;;13.30;99.90;;;;;;5046346;28;20045;-45
2022/09/29 10:46:25;;;;;;;8.25;4.85;;;13.50;99.90;;;;;;5050765;28;20423;-43
2022/09/29 10:49:14;;;;;;;6.90;4.75;;;13.60;99.90;;;;;;5049318;28;20076;-44
2022/09/29 10:51:50;;;;;;;6.03;3.88;;;13.60;99.90;;;;;;5042593;28;20045;-44
2022/09/29 10:54:16;;;;;;;6.53;4.78;;;13.70;99.90;;;;;;5049414;28;20040;-43
2022/09/29 10:56:48;;;;;;;6.97;4.70;;;13.90;99.90;;;;;;5051258;28;20067;-47
2022/09/29 10:59:16;;;;;;;6.82;5.35;;;14.00;99.90;;;;;;5051022;28;20051;-43
2022/09/29 11:01:55;;;;;;;7.80;6.20;;;14.00;99.90;;;;;;5051013;28;20442;-44
2022/09/29 11:04:32;;;;;;;7.93;6.13;;;14.10;99.90;;;;;;5049505;28;20068;-44
2022/09/29 11:07:09;;;;;;;6.72;5.10;;;14.10;99.90;;;;;;5049493;28;20065;-46
2022/09/29 11:09:40;;;;;;;6.97;5.78;;;14.20;99.90;;;;;;5051506;28;20118;-48
2022/09/29 11:12:27;;;;;;;8.95;6.65;;;14.30;99.90;;;;;;5033330;28;20605;-46
2022/09/29 11:14:53;;;;;;;8.07;6.45;;;14.40;99.90;;;;;;5051271;28;20041;-47
2022/09/29 11:17:27;;;;;;;7.72;5.53;;;14.50;99.90;;;;;;5051124;28;20063;-44
2022/09/29 11:19:54;;;;;;;;;;;14.60;99.90;;;;;;5051281;28;20073;-45
2022/09/29 11:22:32;;;;;;;8.90;6.85;;;14.70;99.90;;;;;;5050911;28;19925;-45
2022/09/29 11:25:17;;;;;;;9.18;5.75;;;14.80;99.90;;;;;;5049974;28;20510;-46
2022/09/29 11:28:20;;;;;;;8.80;7.25;;;14.90;99.90;;;;;;5049030;28;20112;-44
2022/09/29 11:31:01;;;;;;;8.70;7.30;;;15.10;99.90;;;;;;5049698;28;20495;-42
2022/09/29 11:33:55;;;;;;;9.32;6.90;;;15.20;99.90;;;;;;5050598;28;20056;-43
2022/09/29 11:36:49;;;;;;;7.85;5.93;;;15.40;99.90;;;;;;5050783;28;20048;-44
2022/09/29 11:39:56;;;;;;;6.85;5.60;;;15.60;99.90;;;;;;5049586;28;20037;-45
2022/09/29 11:42:29;;;;;;;8.98;6.80;;;15.80;99.90;;;;;;5049927;28;20090;-45
2022/09/29 11:45:02;;;;;;;9.18;6.72;;;16.10;99.90;;;;;;5047926;28;20052;-47
2022/09/29 11:47:46;;;;;;;8.60;6.37;;;16.20;99.90;;;;;;5014405;28;20037;-44
2022/09/29 11:50:12;;;;;;;;;;;16.40;99.90;;;;;;5043549;28;20300;-45
2022/09/29 11:52:56;;;;;;;6.63;5.32;;;16.30;99.90;;;;;;5046141;28;19927;-47
2022/09/29 11:55:25;;;;;;;;;;;16.60;99.90;;;;;;5051329;28;20141;-46
2022/09/29 11:58:08;;;;;;;7.50;5.78;;;16.60;99.90;;;;;;5034546;28;21124;-43
2022/09/29 12:00:53;;;;;;;6.60;5.18;;;16.90;99.90;;;;;;5051188;28;20399;-49
2022/09/29 12:03:49;;;;;;;7.53;5.78;;;17.00;99.90;;;;;;5051202;28;20091;-48
2022/09/29 12:06:48;;;;;;;6.32;5.20;;;17.10;99.90;;;;;;5049596;28;20037;-46
2022/09/29 12:09:32;;;;;;;6.85;4.90;;;17.30;99.90;;;;;;5050283;28;20037;-47
2022/09/29 12:12:16;;;;;;;8.00;5.70;;;17.50;99.90;;;;;;5051113;28;20048;-44
2022/09/29 12:15:00;;;;;;;;;;;17.50;99.90;;;;;;5051383;28;20116;-46
2022/09/29 12:17:35;;;;;;;7.40;5.30;;;17.60;99.90;;;;;;5050758;28;19963;-45
2022/09/29 12:20:05;;;;;;;8.07;5.22;;;17.80;99.90;;;;;;5050240;28;20048;-46
2022/09/29 12:22:32;;;;;;;9.07;5.28;;;18.00;99.90;;;;;;5050871;28;20056;-44
2022/09/29 12:25:00;;;;;;;7.75;5.00;;;17.80;99.90;;;;;;5050816;28;20041;-43
2022/09/29 12:27:35;;;;;;;6.88;4.70;;;17.90;99.90;;;;;;5051209;28;20070;-44
2022/09/29 12:30:32;;;;;;;6.82;5.38;;;18.00;99.90;;;;;;5050936;28;20179;-46
2022/09/29 12:33:28;;;;;;;7.60;5.13;;;18.20;99.90;;;;;;5033164;28;20041;-45
2022/09/29 12:39:49;;;;;;;9.68;5.13;;;18.40;99.90;;;;;;5050914;28;20056;-45
2022/09/29 12:42:41;;;;;;;5.68;3.90;;;18.50;99.90;;;;;;5009278;28;20053;-47
2022/09/29 12:45:27;;;;;;;5.95;3.42;;;18.60;99.90;;;;;;5050874;28;20115;-43
2022/09/29 12:48:15;;;;;;;6.55;3.00;;;18.70;99.90;;;;;;5050232;28;20043;-46
2022/09/29 12:50:59;;;;;;;4.45;2.97;;;19.00;99.90;;;;;;5049741;28;20033;-44
2022/09/29 12:54:04;;;;;;;4.20;2.70;;;19.20;99.90;;;;;;5050812;28;20472;-46
2022/09/29 12:56:37;;;;;;;5.85;3.05;;;19.30;99.90;;;;;;5009855;28;20084;-47
2022/09/29 12:59:31;;;;;;;4.93;3.13;;;19.20;99.90;;;;;;5050751;28;20033;-45
2022/09/29 13:02:01;;;;;;;5.85;3.88;;;19.40;99.90;;;;;;5049949;28;20057;-45
2022/09/29 13:04:57;;;;;;;5.10;3.83;;;19.40;99.90;;;;;;5050640;28;20116;-43
2022/09/29 13:07:44;;;;;;;5.30;3.45;;;19.10;99.90;;;;;;5050050;28;20033;-45
2022/09/29 13:10:39;;;;;;;6.38;3.33;;;19.40;99.90;;;;;;5050614;28;20056;-46
2022/09/29 13:13:38;;;;;;;5.07;3.20;;;19.50;99.90;;;;;;5050698;28;20546;-46
2022/09/29 13:16:39;;;;;;;5.40;3.60;;;19.50;99.90;;;;;;5050402;28;20044;-43
2022/09/29 13:19:53;;;;;;;4.30;2.90;;;19.80;99.90;;;;;;5047950;28;20041;-44
2022/09/29 13:22:43;;;;;;;4.43;2.78;;;19.90;99.90;;;;;;4996444;28;20107;-45